createdAt,value
2022-11-08T00:01:43.710Z,97.00
2022-11-08T00:04:11.673Z,96.80
2022-11-08T00:06:38.702Z,96.90
2022-11-08T00:09:05.409Z,96.80
2022-11-08T00:11:32.143Z,96.80
2022-11-08T00:14:00.220Z,96.60
2022-11-08T00:16:27.684Z,96.90
2022-11-08T00:18:54.437Z,96.20
2022-11-08T00:21:21.163Z,96.40
2022-11-08T00:23:47.877Z,96.30
2022-11-08T00:26:14.614Z,96.40
2022-11-08T00:28:41.340Z,96.10
2022-11-08T00:31:09.401Z,96.50
2022-11-08T00:33:36.182Z,96.30
2022-11-08T00:36:04.149Z,96.40
2022-11-08T00:38:30.860Z,96.30
2022-11-08T00:40:57.843Z,96.10
2022-11-08T00:43:24.585Z,96.00
2022-11-08T00:45:51.436Z,96.40
2022-11-08T00:48:20.045Z,96.00
2022-11-08T00:50:46.925Z,96.70
2022-11-08T00:53:13.628Z,96.70
2022-11-08T00:55:40.347Z,96.50
2022-11-08T00:58:07.109Z,96.50
2022-11-08T01:00:33.845Z,96.60
2022-11-08T01:03:00.585Z,96.40
2022-11-08T01:05:28.793Z,96.30
2022-11-08T01:07:55.500Z,96.10
2022-11-08T01:10:22.256Z,95.80
2022-11-08T01:12:48.979Z,96.60
2022-11-08T01:15:15.878Z,95.90
2022-11-08T01:17:42.636Z,95.90
2022-11-08T01:20:09.960Z,95.90
2022-11-08T01:22:38.042Z,96.10
2022-11-08T01:25:05.292Z,95.40
2022-11-08T01:27:32.137Z,95.70
2022-11-08T01:29:58.849Z,95.40
2022-11-08T01:32:25.604Z,95.50
2022-11-08T01:34:52.347Z,95.50
2022-11-08T01:37:19.101Z,95.70
2022-11-08T01:39:47.177Z,95.40
2022-11-08T01:42:13.904Z,95.30
2022-11-08T01:44:56.942Z,95.10
2022-11-08T01:47:23.657Z,95.40
2022-11-08T01:49:52.971Z,95.40
2022-11-08T01:52:27.203Z,95.30
2022-11-08T01:55:05.287Z,94.80
2022-11-08T01:57:38.153Z,94.80
2022-11-08T02:00:07.544Z,94.80
2022-11-08T02:02:37.092Z,95.00
2022-11-08T02:05:06.454Z,95.00
2022-11-08T02:07:34.446Z,95.00
2022-11-08T02:10:03.121Z,94.80
2022-11-08T02:12:30.384Z,94.70
2022-11-08T02:14:57.222Z,94.30
2022-11-08T02:17:24.043Z,94.60
2022-11-08T02:19:51.027Z,94.30
2022-11-08T02:22:25.690Z,94.60
2022-11-08T02:24:54.112Z,94.50
2022-11-08T02:27:20.926Z,94.90
2022-11-08T02:29:47.659Z,94.60
2022-11-08T02:32:14.401Z,94.70
2022-11-08T02:34:44.932Z,94.50
2022-11-08T02:37:14.531Z,94.50
2022-11-08T02:39:41.268Z,94.90
2022-11-08T02:42:13.360Z,94.90
2022-11-08T02:44:40.074Z,95.10
2022-11-08T02:47:07.009Z,94.80
2022-11-08T02:49:33.771Z,94.90
2022-11-08T02:52:00.510Z,95.00
2022-11-08T02:54:27.245Z,94.80
2022-11-08T02:56:53.958Z,94.80
2022-11-08T02:59:22.033Z,94.90
2022-11-08T03:01:48.903Z,94.60
2022-11-08T03:04:15.710Z,94.80
2022-11-08T03:06:42.399Z,94.70
2022-11-08T03:09:09.199Z,94.50
2022-11-08T03:11:35.933Z,94.40
2022-11-08T03:14:02.777Z,94.70
2022-11-08T03:16:30.952Z,95.30
2022-11-08T03:18:57.691Z,94.50
2022-11-08T03:21:24.430Z,94.30
2022-11-08T03:23:51.144Z,94.70
2022-11-08T03:26:17.839Z,94.50
2022-11-08T03:28:44.582Z,94.40
2022-11-08T03:31:11.312Z,94.00
2022-11-08T03:33:39.430Z,94.00
2022-11-08T03:36:06.418Z,93.90
2022-11-08T03:38:33.257Z,93.90
2022-11-08T03:40:59.968Z,93.90
2022-11-08T03:43:26.807Z,94.00
2022-11-08T03:45:53.568Z,93.90
2022-11-08T03:48:20.713Z,93.90
2022-11-08T03:50:49.368Z,93.80
2022-11-08T03:53:16.070Z,93.90
2022-11-08T03:55:42.764Z,93.70
2022-11-08T03:58:09.517Z,93.40
2022-11-08T04:00:36.229Z,94.20
2022-11-08T04:03:04.075Z,94.70
2022-11-08T04:05:31.575Z,94.60
2022-11-08T04:08:00.169Z,94.20
2022-11-08T04:10:26.893Z,93.90
2022-11-08T04:12:53.664Z,93.90
2022-11-08T04:15:22.601Z,93.70
2022-11-08T04:17:50.817Z,93.60
2022-11-08T04:20:17.533Z,93.60
2022-11-08T04:22:44.227Z,93.60
2022-11-08T04:25:12.421Z,93.40
2022-11-08T04:27:39.136Z,93.40
2022-11-08T04:30:06.877Z,93.40
2022-11-08T04:32:33.598Z,93.00
2022-11-08T04:35:00.307Z,93.20
2022-11-08T04:37:26.998Z,93.20
2022-11-08T04:39:53.718Z,93.90
2022-11-08T04:42:21.782Z,94.40
2022-11-08T04:44:48.503Z,93.00
2022-11-08T04:47:15.217Z,93.50
2022-11-08T04:49:41.941Z,93.60
2022-11-08T04:52:08.635Z,93.30
2022-11-08T04:54:35.326Z,93.00
2022-11-08T04:57:02.032Z,93.20
2022-11-08T04:59:30.331Z,93.20
2022-11-08T05:01:57.075Z,93.30
2022-11-08T05:04:23.875Z,93.20
2022-11-08T05:06:50.586Z,93.10
2022-11-08T05:09:17.430Z,93.20
2022-11-08T05:11:44.324Z,93.20
2022-11-08T05:14:11.059Z,93.00
2022-11-08T05:16:39.179Z,92.90
2022-11-08T05:19:10.480Z,92.60
2022-11-08T05:21:39.687Z,93.00
2022-11-08T05:24:08.738Z,93.10
2022-11-08T05:26:37.536Z,92.30
2022-11-08T05:29:04.663Z,92.70
2022-11-08T05:31:31.420Z,92.70
2022-11-08T05:33:59.507Z,92.80
2022-11-08T05:36:26.697Z,92.70
2022-11-08T05:38:53.468Z,92.60
2022-11-08T05:41:21.865Z,92.60
2022-11-08T05:43:50.175Z,92.90
2022-11-08T05:46:18.964Z,93.00
2022-11-08T05:48:46.705Z,93.80
2022-11-08T05:51:16.010Z,94.80
2022-11-08T05:53:43.054Z,94.50
2022-11-08T05:56:10.226Z,93.90
2022-11-08T05:58:37.280Z,93.90
2022-11-08T06:01:05.563Z,94.60
2022-11-08T06:03:32.620Z,93.70
2022-11-08T06:06:02.240Z,93.60
2022-11-08T06:08:30.550Z,93.70
2022-11-08T06:11:02.894Z,93.60
2022-11-08T06:13:30.003Z,93.40
2022-11-08T06:15:59.881Z,93.30
2022-11-08T06:18:26.821Z,92.70
2022-11-08T06:20:53.531Z,92.60
2022-11-08T06:23:20.534Z,93.00
2022-11-08T06:25:48.882Z,92.70
2022-11-08T06:28:15.619Z,92.40
2022-11-08T06:30:42.336Z,92.50
2022-11-08T06:33:09.054Z,92.80
2022-11-08T06:35:36.681Z,93.00
2022-11-08T06:38:08.999Z,92.90
2022-11-08T06:40:37.183Z,93.10
2022-11-08T06:43:05.332Z,93.10
2022-11-08T06:45:32.210Z,93.00
2022-11-08T06:48:01.236Z,93.30
2022-11-08T06:50:28.743Z,93.70
2022-11-08T06:52:56.239Z,94.60
2022-11-08T06:55:24.037Z,94.70
2022-11-08T06:57:50.795Z,95.10
2022-11-08T07:00:19.685Z,94.60
2022-11-08T07:02:52.191Z,94.60
2022-11-08T07:05:19.291Z,94.40
2022-11-08T07:07:46.007Z,94.20
2022-11-08T07:10:12.717Z,94.60
2022-11-08T07:12:39.433Z,95.10
2022-11-08T07:15:06.924Z,95.90
2022-11-08T07:17:38.654Z,95.80
2022-11-08T07:20:06.753Z,96.10
2022-11-08T07:22:33.473Z,95.80
2022-11-08T07:25:00.360Z,96.10
2022-11-08T07:27:27.799Z,96.30
2022-11-08T07:29:54.512Z,96.20
2022-11-08T07:32:21.228Z,95.80
2022-11-08T07:34:49.339Z,95.60
2022-11-08T07:37:16.040Z,95.20
2022-11-08T07:39:42.756Z,96.10
2022-11-08T07:42:09.460Z,96.10
2022-11-08T07:44:36.194Z,95.70
2022-11-08T07:47:03.033Z,95.60
2022-11-08T07:49:29.754Z,96.00
2022-11-08T07:51:57.816Z,95.50
2022-11-08T07:54:24.556Z,95.70
2022-11-08T07:56:51.329Z,95.00
2022-11-08T07:59:18.097Z,93.70
2022-11-08T08:01:44.844Z,92.70
2022-11-08T08:04:11.580Z,92.70
2022-11-08T08:06:38.332Z,92.30
2022-11-08T08:09:06.422Z,92.60
2022-11-08T08:11:34.046Z,92.20
2022-11-08T08:14:00.955Z,91.60
2022-11-08T08:16:27.651Z,91.70
2022-11-08T08:18:56.564Z,91.80
2022-11-08T08:21:23.646Z,91.60
2022-11-08T08:23:50.380Z,91.60
2022-11-08T08:26:18.497Z,91.70
2022-11-08T08:28:45.213Z,91.70
2022-11-08T08:31:12.130Z,91.70
2022-11-08T08:33:39.003Z,91.80
2022-11-08T08:36:06.583Z,91.90
2022-11-08T08:38:34.223Z,92.00
2022-11-08T08:41:01.809Z,92.10
2022-11-08T08:43:30.873Z,92.20
2022-11-08T08:45:59.335Z,92.20
2022-11-08T08:48:26.043Z,92.20
2022-11-08T08:50:52.791Z,92.30
2022-11-08T08:53:19.803Z,92.30
2022-11-08T08:55:46.951Z,92.40
2022-11-08T08:58:14.098Z,92.40
2022-11-08T09:03:29.556Z,92.70
2022-11-08T09:05:57.431Z,92.80
2022-11-08T09:08:24.392Z,92.70
2022-11-08T09:10:53.846Z,92.80
2022-11-08T09:13:20.824Z,93.00
2022-11-08T09:15:49.537Z,92.90
2022-11-08T09:18:16.326Z,92.80
2022-11-08T09:20:43.214Z,92.70
2022-11-08T09:23:10.659Z,92.60
2022-11-08T09:25:37.480Z,92.70
2022-11-08T09:28:04.559Z,92.70
2022-11-08T09:30:31.378Z,92.70
2022-11-08T09:33:01.155Z,92.80
2022-11-08T09:35:28.884Z,92.90
2022-11-08T09:37:55.822Z,93.00
2022-11-08T09:40:30.171Z,92.90
2022-11-08T09:43:06.711Z,93.00
2022-11-08T09:45:41.618Z,93.00
2022-11-08T09:48:21.720Z,93.00
2022-11-08T09:50:51.698Z,93.20
2022-11-08T09:53:25.699Z,93.20
2022-11-08T09:55:56.812Z,93.30
2022-11-08T09:58:31.687Z,93.70
2022-11-08T10:00:59.285Z,93.70
2022-11-08T10:03:28.429Z,94.10
2022-11-08T10:06:10.748Z,94.30
2022-11-08T10:08:42.186Z,94.60
2022-11-08T10:11:20.643Z,94.90
2022-11-08T10:13:59.150Z,95.20
2022-11-08T10:16:33.005Z,95.50
2022-11-08T10:19:14.093Z,95.80
2022-11-08T10:21:54.678Z,96.00
2022-11-08T10:24:31.753Z,96.30
2022-11-08T10:27:00.188Z,96.60
2022-11-08T10:29:31.995Z,96.70
2022-11-08T10:32:03.372Z,97.00
2022-11-08T10:34:38.872Z,97.40
2022-11-08T10:37:09.109Z,97.70
2022-11-08T10:39:42.188Z,97.70
2022-11-08T10:42:13.684Z,98.10
2022-11-08T10:44:41.613Z,98.30
2022-11-08T10:47:15.232Z,98.30
2022-11-08T10:49:44.142Z,98.60
2022-11-08T10:52:22.645Z,98.80
2022-11-08T10:54:50.982Z,99.10
2022-11-08T10:57:23.675Z,99.40
2022-11-08T10:59:51.658Z,99.30
2022-11-08T11:02:32.230Z,99.40
2022-11-08T11:05:27.249Z,99.80
2022-11-08T11:08:02.042Z,99.90
2022-11-08T11:10:30.978Z,99.90
2022-11-08T11:13:04.052Z,99.90
2022-11-08T11:15:32.461Z,99.90
2022-11-08T11:17:59.203Z,99.90
2022-11-08T11:20:27.724Z,99.90
2022-11-08T11:22:54.740Z,99.90
2022-11-08T11:25:23.828Z,99.90
2022-11-08T11:27:55.019Z,99.90
2022-11-08T11:30:31.117Z,99.90
2022-11-08T11:33:04.732Z,99.90
2022-11-08T11:35:42.703Z,99.90
2022-11-08T11:38:19.003Z,99.90
2022-11-08T11:40:46.998Z,99.90
2022-11-08T11:43:23.208Z,99.90
2022-11-08T11:45:52.922Z,99.90
2022-11-08T11:48:26.128Z,99.90
2022-11-08T11:50:54.284Z,99.90
2022-11-08T11:53:24.428Z,99.90
2022-11-08T11:56:24.424Z,99.90
2022-11-08T11:59:07.747Z,99.90
2022-11-08T12:01:49.439Z,99.90
2022-11-08T12:04:35.652Z,99.90
2022-11-08T12:07:09.774Z,99.90
2022-11-08T12:09:46.778Z,99.90
2022-11-08T12:12:24.966Z,99.90
2022-11-08T12:15:00.186Z,99.90
2022-11-08T12:17:56.528Z,99.90
2022-11-08T12:20:41.474Z,99.90
2022-11-08T12:23:37.890Z,99.90
2022-11-08T12:26:13.749Z,99.90
2022-11-08T12:28:56.740Z,99.90
2022-11-08T12:31:30.084Z,99.90
2022-11-08T12:34:18.361Z,99.90
2022-11-08T12:36:53.526Z,99.90
2022-11-08T12:39:32.756Z,99.90
2022-11-08T12:42:12.604Z,99.90
2022-11-08T12:45:07.991Z,99.90
2022-11-08T12:47:39.247Z,99.90
2022-11-08T12:50:19.924Z,99.90
2022-11-08T12:53:10.357Z,99.90
2022-11-08T12:55:41.532Z,99.90
2022-11-08T12:58:22.041Z,99.90
2022-11-08T13:00:50.036Z,99.90
2022-11-08T13:03:36.227Z,99.90
2022-11-08T13:06:07.832Z,99.90
2022-11-08T13:08:43.922Z,99.90
2022-11-08T13:11:20.384Z,99.90
2022-11-08T13:13:50.418Z,99.90
2022-11-08T13:16:19.012Z,99.90
2022-11-08T13:18:48.260Z,99.90
2022-11-08T13:21:36.657Z,99.90
2022-11-08T13:24:43.971Z,99.90
2022-11-08T13:27:24.641Z,99.90
2022-11-08T13:29:52.365Z,99.90
2022-11-08T13:32:31.694Z,99.90
2022-11-08T13:35:04.306Z,99.90
2022-11-08T13:37:55.333Z,99.90
2022-11-08T13:40:29.213Z,99.90
2022-11-08T13:43:14.341Z,99.90
2022-11-08T13:45:41.254Z,99.90
2022-11-08T13:48:35.971Z,99.90
2022-11-08T13:51:29.680Z,99.90
2022-11-08T13:53:58.408Z,99.90
2022-11-08T13:56:50.024Z,99.90
2022-11-08T13:59:55.089Z,99.90
2022-11-08T14:02:37.763Z,99.90
2022-11-08T14:05:21.322Z,99.90
2022-11-08T14:07:56.232Z,99.90
2022-11-08T14:10:27.755Z,99.90
2022-11-08T14:13:02.671Z,99.90
2022-11-08T14:15:35.089Z,99.90
2022-11-08T14:18:06.601Z,99.90
2022-11-08T14:20:37.321Z,99.90
2022-11-08T14:23:14.761Z,99.90
2022-11-08T14:25:42.635Z,99.90
2022-11-08T14:28:22.117Z,99.90
2022-11-08T14:30:50.949Z,99.90
2022-11-08T14:33:19.713Z,99.90
2022-11-08T14:35:54.920Z,99.90
2022-11-08T14:38:21.739Z,99.90
2022-11-08T14:40:49.993Z,99.90
2022-11-08T14:43:17.050Z,99.90
2022-11-08T14:45:44.434Z,99.90
2022-11-08T14:48:21.311Z,99.90
2022-11-08T14:50:48.049Z,99.90
2022-11-08T14:53:23.570Z,99.90
2022-11-08T14:55:57.756Z,99.90
2022-11-08T14:58:27.232Z,99.90
2022-11-08T15:00:54.011Z,99.90
2022-11-08T15:03:28.154Z,99.90
2022-11-08T15:05:55.467Z,99.90
2022-11-08T15:08:27.235Z,99.90
2022-11-08T15:10:56.212Z,99.90
2022-11-08T15:13:23.375Z,99.90
2022-11-08T15:15:54.237Z,99.90
2022-11-08T15:18:28.257Z,99.90
2022-11-08T15:20:57.187Z,99.90
2022-11-08T15:23:31.501Z,99.90
2022-11-08T15:25:59.839Z,99.90
2022-11-08T15:28:32.276Z,99.90
2022-11-08T15:31:01.443Z,99.90
2022-11-08T15:33:34.664Z,99.90
2022-11-08T15:36:02.219Z,99.90
2022-11-08T15:38:32.299Z,99.90
2022-11-08T15:41:01.019Z,99.90
2022-11-08T15:43:40.337Z,99.90
2022-11-08T15:46:26.269Z,99.90
2022-11-08T15:48:58.816Z,99.90
2022-11-08T15:51:25.779Z,99.90
2022-11-08T15:53:52.502Z,99.90
2022-11-08T15:56:19.370Z,99.90
2022-11-08T15:58:46.355Z,99.90
2022-11-08T16:01:19.467Z,99.90
2022-11-08T16:03:46.744Z,99.90
2022-11-08T16:06:15.195Z,99.90
2022-11-08T16:08:42.257Z,99.90
2022-11-08T16:11:13.734Z,99.90
2022-11-08T16:13:40.566Z,99.90
2022-11-08T16:16:12.255Z,99.90
2022-11-08T16:18:39.560Z,99.90
2022-11-08T16:21:06.479Z,99.90
2022-11-08T16:23:34.544Z,99.90
2022-11-08T16:26:01.384Z,99.90
2022-11-08T16:28:29.841Z,99.90
2022-11-08T16:30:56.879Z,99.90
2022-11-08T16:33:25.338Z,99.90
2022-11-08T16:35:54.678Z,99.90
2022-11-08T16:38:24.393Z,99.90
2022-11-08T16:40:52.502Z,99.90
2022-11-08T16:43:19.211Z,99.90
2022-11-08T16:48:32.742Z,99.90
2022-11-08T16:51:02.929Z,99.90
2022-11-08T16:53:30.210Z,99.90
2022-11-08T16:55:58.272Z,99.90
2022-11-08T16:58:24.984Z,99.90
2022-11-08T17:00:52.363Z,99.90
2022-11-08T17:03:21.502Z,99.90
2022-11-08T17:05:50.461Z,99.90
2022-11-08T17:08:17.501Z,99.90
2022-11-08T17:10:44.503Z,99.90
2022-11-08T17:13:15.017Z,99.90
2022-11-08T17:15:42.377Z,99.90
2022-11-08T17:18:11.504Z,99.90
2022-11-08T17:20:38.216Z,99.90
2022-11-08T17:23:05.095Z,99.90
2022-11-08T17:25:31.823Z,99.90
2022-11-08T17:27:58.537Z,99.90
2022-11-08T17:30:27.093Z,99.90
2022-11-08T17:32:54.167Z,99.90
2022-11-08T17:35:48.631Z,99.90
2022-11-08T17:38:15.322Z,99.90
2022-11-08T17:40:42.003Z,99.90
2022-11-08T17:43:08.727Z,99.90
2022-11-08T17:45:36.780Z,99.90
2022-11-08T17:48:03.661Z,99.90
2022-11-08T17:50:30.535Z,99.90
2022-11-08T17:52:57.235Z,99.90
2022-11-08T17:55:23.935Z,99.90
2022-11-08T17:57:50.665Z,99.90
2022-11-08T18:00:17.770Z,99.90
2022-11-08T18:02:45.982Z,99.90
2022-11-08T18:05:12.674Z,99.90
2022-11-08T18:07:39.392Z,99.90
2022-11-08T18:10:06.826Z,99.90
2022-11-08T18:12:33.821Z,99.90
2022-11-08T18:15:00.540Z,99.90
2022-11-08T18:17:27.315Z,99.90
2022-11-08T18:19:55.380Z,99.90
2022-11-08T18:22:22.118Z,99.90
2022-11-08T18:24:50.205Z,99.90
2022-11-08T18:27:17.122Z,99.90
2022-11-08T18:29:44.063Z,99.90
2022-11-08T18:32:10.761Z,99.90
2022-11-08T18:34:37.501Z,99.90
2022-11-08T18:37:05.540Z,99.90
2022-11-08T18:39:32.307Z,99.90
2022-11-08T18:41:59.073Z,99.90
2022-11-08T18:44:25.829Z,99.90
2022-11-08T18:46:52.546Z,99.90
2022-11-08T18:49:19.402Z,99.90
2022-11-08T18:51:46.119Z,99.90
2022-11-08T18:54:14.175Z,99.90
2022-11-08T18:56:40.871Z,99.90
2022-11-08T18:59:07.583Z,99.90
2022-11-08T19:01:34.364Z,99.90
2022-11-08T19:04:01.109Z,99.90
2022-11-08T19:06:28.216Z,99.90
2022-11-08T19:08:55.173Z,99.90
2022-11-08T19:11:23.335Z,99.90
2022-11-08T19:13:50.038Z,99.90
2022-11-08T19:16:18.371Z,99.90
2022-11-08T19:18:45.892Z,99.90
2022-11-08T19:21:15.076Z,99.90
2022-11-08T19:23:41.961Z,99.90
2022-11-08T19:26:11.604Z,99.90
2022-11-08T19:28:40.992Z,99.90
2022-11-08T19:31:08.088Z,99.90
2022-11-08T19:33:36.568Z,99.90
2022-11-08T19:36:05.391Z,99.90
2022-11-08T19:38:32.975Z,99.90
2022-11-08T19:41:01.932Z,99.90
2022-11-08T19:43:29.811Z,99.90
2022-11-08T19:46:00.609Z,99.90
2022-11-08T19:48:27.293Z,99.90
2022-11-08T19:50:54.001Z,99.90
2022-11-08T19:53:20.737Z,99.90
2022-11-08T19:55:47.715Z,99.90
2022-11-08T19:58:14.461Z,99.90
2022-11-08T20:00:41.388Z,99.90
2022-11-08T20:03:09.429Z,99.90
2022-11-08T20:05:36.134Z,99.90
2022-11-08T20:08:02.852Z,99.90
2022-11-08T20:10:29.584Z,99.90
2022-11-08T20:12:56.305Z,99.90
2022-11-08T20:15:23.059Z,99.90
2022-11-08T20:17:49.934Z,99.90
2022-11-08T20:20:18.282Z,99.90
2022-11-08T20:22:48.091Z,99.90
2022-11-08T20:25:15.197Z,99.90
2022-11-08T20:27:41.885Z,99.90
2022-11-08T20:30:10.109Z,99.90
2022-11-08T20:32:36.816Z,99.90
2022-11-08T20:35:04.375Z,99.90
2022-11-08T20:37:32.520Z,99.90
2022-11-08T20:39:59.226Z,99.90
2022-11-08T20:42:25.959Z,99.90
2022-11-08T20:44:52.654Z,99.90
2022-11-08T20:47:19.888Z,99.90
2022-11-08T20:49:46.704Z,99.90
2022-11-08T20:52:13.400Z,99.90
2022-11-08T20:54:43.983Z,99.90
2022-11-08T20:57:10.857Z,99.90
2022-11-08T20:59:37.561Z,99.90
2022-11-08T21:02:04.674Z,99.90
2022-11-08T21:04:31.449Z,99.90
2022-11-08T21:07:59.535Z,99.90
2022-11-08T21:09:50.411Z,99.90
2022-11-08T21:12:18.531Z,99.90
2022-11-08T21:14:45.297Z,99.90
2022-11-08T21:17:27.162Z,99.90
2022-11-08T21:19:54.280Z,99.90
2022-11-08T21:22:21.505Z,99.90
2022-11-08T21:24:49.641Z,99.90
2022-11-08T21:27:16.986Z,99.90
2022-11-08T21:29:43.695Z,99.90
2022-11-08T21:32:10.379Z,99.90
2022-11-08T21:34:37.076Z,99.90
2022-11-08T21:37:03.767Z,99.90
2022-11-08T21:39:30.477Z,99.90
2022-11-08T21:41:58.548Z,99.90
2022-11-08T21:44:25.244Z,99.90
2022-11-08T21:46:51.930Z,99.90
2022-11-08T21:49:18.603Z,99.90
2022-11-08T21:51:45.285Z,99.90
2022-11-08T21:54:11.951Z,99.90
2022-11-08T21:56:38.644Z,99.90
2022-11-08T21:59:06.695Z,99.90
2022-11-08T22:01:33.439Z,99.90
2022-11-08T22:04:00.297Z,99.90
2022-11-08T22:06:27.361Z,99.90
2022-11-08T22:08:54.433Z,99.90
2022-11-08T22:11:21.293Z,99.90
2022-11-08T22:13:47.999Z,99.90
2022-11-08T22:16:16.054Z,99.90
2022-11-08T22:21:29.513Z,99.90
2022-11-08T22:23:56.193Z,99.90
2022-11-08T22:26:22.972Z,99.90
2022-11-08T22:28:49.721Z,99.90
2022-11-08T22:31:17.750Z,99.90
2022-11-08T22:33:44.428Z,99.90
2022-11-08T22:36:11.312Z,99.90
2022-11-08T22:38:38.242Z,99.90
2022-11-08T22:41:05.355Z,99.90
2022-11-08T22:43:33.028Z,99.90
2022-11-08T22:46:00.017Z,99.90
2022-11-08T22:48:28.060Z,99.90
2022-11-08T22:50:54.751Z,99.90
2022-11-08T22:53:21.657Z,99.90
2022-11-08T22:55:48.457Z,99.90
2022-11-08T22:58:15.151Z,99.90
2022-11-08T23:00:41.852Z,99.90
2022-11-08T23:03:08.580Z,99.90
2022-11-08T23:05:37.376Z,99.90
2022-11-08T23:08:04.400Z,99.90
2022-11-08T23:10:31.092Z,99.90
2022-11-08T23:12:57.780Z,99.90
2022-11-08T23:15:24.525Z,99.90
2022-11-08T23:17:51.202Z,99.90
2022-11-08T23:20:17.947Z,99.90
2022-11-08T23:22:45.987Z,99.90
2022-11-08T23:25:12.694Z,99.90
2022-11-08T23:27:39.394Z,99.90
2022-11-08T23:30:07.273Z,99.90
2022-11-08T23:32:34.676Z,99.90
2022-11-08T23:35:01.784Z,99.90
2022-11-08T23:37:29.335Z,99.90
2022-11-08T23:39:57.406Z,99.90
2022-11-08T23:42:24.181Z,99.90
2022-11-08T23:44:50.851Z,99.90
2022-11-08T23:47:17.538Z,99.90
2022-11-08T23:49:44.245Z,99.90
2022-11-08T23:52:10.959Z,99.90
2022-11-08T23:54:37.669Z,99.90
2022-11-08T23:57:05.755Z,99.90
2022-11-08T23:59:32.457Z,99.90
